sensor_id;sensor_type;location;lat;lon;timestamp;temperature;humidity
26954;DHT22;14508;50.924;11.600;2022-07-01T00:01:43;21.00;99.90
26954;DHT22;14508;50.924;11.600;2022-07-01T00:04:11;21.00;99.90
26954;DHT22;14508;50.924;11.600;2022-07-01T00:06:37;21.00;99.90
26954;DHT22;14508;50.924;11.600;2022-07-01T00:09:04;21.00;99.90
26954;DHT22;14508;50.924;11.600;2022-07-01T00:11:32;21.00;99.90
26954;DHT22;14508;50.924;11.600;2022-07-01T00:13:59;21.10;99.90
26954;DHT22;14508;50.924;11.600;2022-07-01T00:16:25;21.10;99.90
26954;DHT22;14508;50.924;11.600;2022-07-01T00:18:52;21.10;99.90
26954;DHT22;14508;50.924;11.600;2022-07-01T00:21:19;21.10;99.90
26954;DHT22;14508;50.924;11.600;2022-07-01T00:23:46;21.10;99.90
26954;DHT22;14508;50.924;11.600;2022-07-01T00:26:12;21.10;99.90
26954;DHT22;14508;50.924;11.600;2022-07-01T00:28:40;21.10;99.90
26954;DHT22;14508;50.924;11.600;2022-07-01T00:31:07;21.10;99.90
26954;DHT22;14508;50.924;11.600;2022-07-01T00:33:34;21.10;99.90
26954;DHT22;14508;50.924;11.600;2022-07-01T00:36:00;21.10;99.90
26954;DHT22;14508;50.924;11.600;2022-07-01T00:38:27;21.10;99.90
26954;DHT22;14508;50.924;11.600;2022-07-01T00:40:55;21.10;99.90
26954;DHT22;14508;50.924;11.600;2022-07-01T00:43:22;21.10;99.90
26954;DHT22;14508;50.924;11.600;2022-07-01T00:45:52;21.10;99.90
26954;DHT22;14508;50.924;11.600;2022-07-01T00:48:20;21.10;99.90
26954;DHT22;14508;50.924;11.600;2022-07-01T00:50:47;21.00;99.90
26954;DHT22;14508;50.924;11.600;2022-07-01T00:53:14;21.00;99.90
26954;DHT22;14508;50.924;11.600;2022-07-01T00:55:41;21.00;99.90
26954;DHT22;14508;50.924;11.600;2022-07-01T00:58:08;20.90;99.90
26954;DHT22;14508;50.924;11.600;2022-07-01T01:00:36;20.90;99.90
26954;DHT22;14508;50.924;11.600;2022-07-01T01:03:06;20.90;99.90
26954;DHT22;14508;50.924;11.600;2022-07-01T01:05:36;20.90;99.90
26954;DHT22;14508;50.924;11.600;2022-07-01T01:08:03;20.90;99.90
26954;DHT22;14508;50.924;11.600;2022-07-01T01:10:30;20.90;99.90
26954;DHT22;14508;50.924;11.600;2022-07-01T01:12:57;20.80;99.90
26954;DHT22;14508;50.924;11.600;2022-07-01T01:15:24;20.80;99.90
26954;DHT22;14508;50.924;11.600;2022-07-01T01:17:52;20.80;99.90
26954;DHT22;14508;50.924;11.600;2022-07-01T01:20:20;20.80;99.90
26954;DHT22;14508;50.924;11.600;2022-07-01T01:22:48;20.80;99.90
26954;DHT22;14508;50.924;11.600;2022-07-01T01:25:15;20.80;99.90
26954;DHT22;14508;50.924;11.600;2022-07-01T01:27:42;20.80;99.90
26954;DHT22;14508;50.924;11.600;2022-07-01T01:30:11;20.80;99.90
26954;DHT22;14508;50.924;11.600;2022-07-01T01:32:39;20.80;99.90
26954;DHT22;14508;50.924;11.600;2022-07-01T01:35:07;20.90;99.90
26954;DHT22;14508;50.924;11.600;2022-07-01T01:37:34;20.90;99.90
26954;DHT22;14508;50.924;11.600;2022-07-01T01:40:02;21.00;99.90
26954;DHT22;14508;50.924;11.600;2022-07-01T01:42:29;21.00;99.90
26954;DHT22;14508;50.924;11.600;2022-07-01T01:44:57;21.00;99.90
26954;DHT22;14508;50.924;11.600;2022-07-01T01:47:24;21.10;99.90
26954;DHT22;14508;50.924;11.600;2022-07-01T01:49:51;21.10;99.90
26954;DHT22;14508;50.924;11.600;2022-07-01T01:52:17;21.20;99.90
26954;DHT22;14508;50.924;11.600;2022-07-01T01:54:44;21.20;99.90
26954;DHT22;14508;50.924;11.600;2022-07-01T01:57:13;21.20;99.90
26954;DHT22;14508;50.924;11.600;2022-07-01T01:59:40;21.30;99.90
26954;DHT22;14508;50.924;11.600;2022-07-01T02:02:06;21.30;99.90
26954;DHT22;14508;50.924;11.600;2022-07-01T02:04:33;21.30;99.90
26954;DHT22;14508;50.924;11.600;2022-07-01T02:07:00;21.40;99.90
26954;DHT22;14508;50.924;11.600;2022-07-01T02:09:27;21.40;99.90
26954;DHT22;14508;50.924;11.600;2022-07-01T02:11:54;21.50;99.90
26954;DHT22;14508;50.924;11.600;2022-07-01T02:14:22;21.50;99.90
26954;DHT22;14508;50.924;11.600;2022-07-01T02:16:49;21.50;99.90
26954;DHT22;14508;50.924;11.600;2022-07-01T02:19:16;21.50;99.90
26954;DHT22;14508;50.924;11.600;2022-07-01T02:21:42;21.60;99.90
26954;DHT22;14508;50.924;11.600;2022-07-01T02:24:09;21.60;99.90
26954;DHT22;14508;50.924;11.600;2022-07-01T02:26:36;21.70;99.90
26954;DHT22;14508;50.924;11.600;2022-07-01T02:29:02;21.70;99.90
26954;DHT22;14508;50.924;11.600;2022-07-01T02:31:30;21.70;99.90
26954;DHT22;14508;50.924;11.600;2022-07-01T02:33:57;21.80;99.90
26954;DHT22;14508;50.924;11.600;2022-07-01T02:36:24;21.70;99.90
26954;DHT22;14508;50.924;11.600;2022-07-01T02:38:51;21.70;99.90
26954;DHT22;14508;50.924;11.600;2022-07-01T02:41:17;21.70;99.90
26954;DHT22;14508;50.924;11.600;2022-07-01T02:43:44;21.70;99.90
26954;DHT22;14508;50.924;11.600;2022-07-01T02:46:11;21.60;99.90
26954;DHT22;14508;50.924;11.600;2022-07-01T02:52:26;21.40;99.90
26954;DHT22;14508;50.924;11.600;2022-07-01T02:54:53;21.10;99.90
26954;DHT22;14508;50.924;11.600;2022-07-01T02:57:20;21.00;99.90
26954;DHT22;14508;50.924;11.600;2022-07-01T02:59:47;20.90;99.90
26954;DHT22;14508;50.924;11.600;2022-07-01T03:02:13;20.80;99.90
26954;DHT22;14508;50.924;11.600;2022-07-01T03:04:40;20.70;99.90
26954;DHT22;14508;50.924;11.600;2022-07-01T03:07:07;20.60;99.90
26954;DHT22;14508;50.924;11.600;2022-07-01T03:09:35;20.60;99.90
26954;DHT22;14508;50.924;11.600;2022-07-01T03:12:02;20.50;99.90
26954;DHT22;14508;50.924;11.600;2022-07-01T03:14:48;20.50;99.90
26954;DHT22;14508;50.924;11.600;2022-07-01T03:17:16;20.40;99.90
26954;DHT22;14508;50.924;11.600;2022-07-01T03:19:43;20.30;99.90
26954;DHT22;14508;50.924;11.600;2022-07-01T03:22:10;20.30;99.90
26954;DHT22;14508;50.924;11.600;2022-07-01T03:24:38;20.30;99.90
26954;DHT22;14508;50.924;11.600;2022-07-01T03:27:04;20.30;99.90
26954;DHT22;14508;50.924;11.600;2022-07-01T03:29:31;20.20;99.90
26954;DHT22;14508;50.924;11.600;2022-07-01T03:31:58;20.20;99.90
26954;DHT22;14508;50.924;11.600;2022-07-01T03:34:24;20.20;99.90
26954;DHT22;14508;50.924;11.600;2022-07-01T03:36:51;20.10;99.90
26954;DHT22;14508;50.924;11.600;2022-07-01T03:39:18;20.00;99.90
26954;DHT22;14508;50.924;11.600;2022-07-01T03:41:46;20.00;99.90
26954;DHT22;14508;50.924;11.600;2022-07-01T03:44:13;20.00;99.90
26954;DHT22;14508;50.924;11.600;2022-07-01T03:46:39;20.00;99.90
26954;DHT22;14508;50.924;11.600;2022-07-01T03:49:06;19.90;99.90
26954;DHT22;14508;50.924;11.600;2022-07-01T03:51:33;19.90;99.90
26954;DHT22;14508;50.924;11.600;2022-07-01T03:54:00;19.90;99.90
26954;DHT22;14508;50.924;11.600;2022-07-01T03:56:46;19.80;99.90
26954;DHT22;14508;50.924;11.600;2022-07-01T03:59:12;19.70;99.90
26954;DHT22;14508;50.924;11.600;2022-07-01T04:01:39;19.70;99.90
26954;DHT22;14508;50.924;11.600;2022-07-01T04:04:05;19.70;99.90
26954;DHT22;14508;50.924;11.600;2022-07-01T04:06:32;19.60;99.90
26954;DHT22;14508;50.924;11.600;2022-07-01T04:08:59;19.60;99.90
26954;DHT22;14508;50.924;11.600;2022-07-01T04:11:26;19.60;99.90
26954;DHT22;14508;50.924;11.600;2022-07-01T04:13:54;19.60;99.90
26954;DHT22;14508;50.924;11.600;2022-07-01T04:16:21;19.60;99.90
26954;DHT22;14508;50.924;11.600;2022-07-01T04:18:48;19.60;99.90
26954;DHT22;14508;50.924;11.600;2022-07-01T04:21:15;19.70;99.90
26954;DHT22;14508;50.924;11.600;2022-07-01T04:23:59;19.70;99.90
26954;DHT22;14508;50.924;11.600;2022-07-01T04:26:26;19.70;99.90
26954;DHT22;14508;50.924;11.600;2022-07-01T04:28:55;19.80;99.90
26954;DHT22;14508;50.924;11.600;2022-07-01T04:31:22;19.80;99.90
26954;DHT22;14508;50.924;11.600;2022-07-01T04:33:49;19.80;99.90
26954;DHT22;14508;50.924;11.600;2022-07-01T04:36:16;19.80;99.90
26954;DHT22;14508;50.924;11.600;2022-07-01T04:38:42;19.90;99.90
26954;DHT22;14508;50.924;11.600;2022-07-01T04:41:09;19.90;99.90
26954;DHT22;14508;50.924;11.600;2022-07-01T04:43:55;20.00;99.90
26954;DHT22;14508;50.924;11.600;2022-07-01T04:46:21;20.00;99.90
26954;DHT22;14508;50.924;11.600;2022-07-01T04:48:48;20.00;99.90
26954;DHT22;14508;50.924;11.600;2022-07-01T04:51:14;20.00;99.90
26954;DHT22;14508;50.924;11.600;2022-07-01T04:53:41;19.90;99.90
26954;DHT22;14508;50.924;11.600;2022-07-01T04:56:08;19.90;99.90
26954;DHT22;14508;50.924;11.600;2022-07-01T04:58:34;19.90;99.90
26954;DHT22;14508;50.924;11.600;2022-07-01T05:01:02;19.90;99.90
26954;DHT22;14508;50.924;11.600;2022-07-01T05:03:29;19.90;99.90
26954;DHT22;14508;50.924;11.600;2022-07-01T05:05:56;19.90;99.90
26954;DHT22;14508;50.924;11.600;2022-07-01T05:08:22;19.90;99.90
26954;DHT22;14508;50.924;11.600;2022-07-01T05:10:49;20.00;99.90
26954;DHT22;14508;50.924;11.600;2022-07-01T05:13:16;20.00;99.90
26954;DHT22;14508;50.924;11.600;2022-07-01T05:15:42;20.00;99.90
26954;DHT22;14508;50.924;11.600;2022-07-01T05:18:10;20.00;99.90
26954;DHT22;14508;50.924;11.600;2022-07-01T05:20:54;20.10;99.90
26954;DHT22;14508;50.924;11.600;2022-07-01T05:23:39;20.10;99.90
26954;DHT22;14508;50.924;11.600;2022-07-01T05:26:05;20.10;99.90
26954;DHT22;14508;50.924;11.600;2022-07-01T05:28:32;20.00;99.90
26954;DHT22;14508;50.924;11.600;2022-07-01T05:30:59;19.90;99.90
26954;DHT22;14508;50.924;11.600;2022-07-01T05:33:27;19.80;99.90
26954;DHT22;14508;50.924;11.600;2022-07-01T05:35:53;19.70;99.90
26954;DHT22;14508;50.924;11.600;2022-07-01T05:38:20;19.70;99.90
26954;DHT22;14508;50.924;11.600;2022-07-01T05:40:47;19.70;99.90
26954;DHT22;14508;50.924;11.600;2022-07-01T05:43:13;19.70;99.90
26954;DHT22;14508;50.924;11.600;2022-07-01T05:45:40;19.70;99.90
26954;DHT22;14508;50.924;11.600;2022-07-01T05:48:06;19.60;99.90
26954;DHT22;14508;50.924;11.600;2022-07-01T05:50:34;19.60;99.90
26954;DHT22;14508;50.924;11.600;2022-07-01T05:53:01;19.60;99.90
26954;DHT22;14508;50.924;11.600;2022-07-01T05:55:28;19.50;99.90
26954;DHT22;14508;50.924;11.600;2022-07-01T05:57:55;19.50;99.90
26954;DHT22;14508;50.924;11.600;2022-07-01T06:00:21;19.60;99.90
26954;DHT22;14508;50.924;11.600;2022-07-01T06:02:48;19.50;99.90
26954;DHT22;14508;50.924;11.600;2022-07-01T06:05:15;19.50;99.90
26954;DHT22;14508;50.924;11.600;2022-07-01T06:07:43;19.50;99.90
26954;DHT22;14508;50.924;11.600;2022-07-01T06:10:10;19.40;99.90
26954;DHT22;14508;50.924;11.600;2022-07-01T06:12:37;19.40;99.90
26954;DHT22;14508;50.924;11.600;2022-07-01T06:15:04;19.30;99.90
26954;DHT22;14508;50.924;11.600;2022-07-01T06:17:33;19.20;99.90
26954;DHT22;14508;50.924;11.600;2022-07-01T06:20:00;19.20;99.90
26954;DHT22;14508;50.924;11.600;2022-07-01T06:22:26;19.20;99.90
26954;DHT22;14508;50.924;11.600;2022-07-01T06:24:54;19.20;99.90
26954;DHT22;14508;50.924;11.600;2022-07-01T06:27:21;19.20;99.90
26954;DHT22;14508;50.924;11.600;2022-07-01T06:29:49;19.20;99.90
26954;DHT22;14508;50.924;11.600;2022-07-01T06:32:15;19.20;99.90
26954;DHT22;14508;50.924;11.600;2022-07-01T06:34:42;19.20;99.90
26954;DHT22;14508;50.924;11.600;2022-07-01T06:37:09;19.10;99.90
26954;DHT22;14508;50.924;11.600;2022-07-01T06:39:36;19.00;99.90
26954;DHT22;14508;50.924;11.600;2022-07-01T06:42:04;19.00;99.90
26954;DHT22;14508;50.924;11.600;2022-07-01T06:44:31;18.90;99.90
26954;DHT22;14508;50.924;11.600;2022-07-01T06:46:58;18.90;99.90
26954;DHT22;14508;50.924;11.600;2022-07-01T06:49:24;18.90;99.90
26954;DHT22;14508;50.924;11.600;2022-07-01T06:51:51;18.80;99.90
26954;DHT22;14508;50.924;11.600;2022-07-01T06:54:18;18.80;99.90
26954;DHT22;14508;50.924;11.600;2022-07-01T06:56:45;18.80;99.90
26954;DHT22;14508;50.924;11.600;2022-07-01T06:59:13;18.80;99.90
26954;DHT22;14508;50.924;11.600;2022-07-01T07:01:40;18.80;99.90
26954;DHT22;14508;50.924;11.600;2022-07-01T07:04:07;18.80;99.90
26954;DHT22;14508;50.924;11.600;2022-07-01T07:06:34;18.80;99.90
26954;DHT22;14508;50.924;11.600;2022-07-01T07:09:00;18.80;99.90
26954;DHT22;14508;50.924;11.600;2022-07-01T07:11:27;18.80;99.90
26954;DHT22;14508;50.924;11.600;2022-07-01T07:13:54;18.80;99.90
26954;DHT22;14508;50.924;11.600;2022-07-01T07:16:21;18.70;99.90
26954;DHT22;14508;50.924;11.600;2022-07-01T07:18:48;18.70;99.90
26954;DHT22;14508;50.924;11.600;2022-07-01T07:21:16;18.70;99.90
26954;DHT22;14508;50.924;11.600;2022-07-01T07:23:42;18.50;99.90
26954;DHT22;14508;50.924;11.600;2022-07-01T07:26:11;18.50;99.90
26954;DHT22;14508;50.924;11.600;2022-07-01T07:28:37;18.40;99.90
26954;DHT22;14508;50.924;11.600;2022-07-01T07:31:04;18.30;99.90
26954;DHT22;14508;50.924;11.600;2022-07-01T07:33:32;18.30;99.90
26954;DHT22;14508;50.924;11.600;2022-07-01T07:35:59;18.30;99.90
26954;DHT22;14508;50.924;11.600;2022-07-01T07:38:26;18.20;99.90
26954;DHT22;14508;50.924;11.600;2022-07-01T07:40:52;18.10;99.90
26954;DHT22;14508;50.924;11.600;2022-07-01T07:43:19;18.10;99.90
26954;DHT22;14508;50.924;11.600;2022-07-01T07:45:45;18.10;99.90
26954;DHT22;14508;50.924;11.600;2022-07-01T07:48:12;18.00;99.90
26954;DHT22;14508;50.924;11.600;2022-07-01T07:50:40;18.00;99.90
26954;DHT22;14508;50.924;11.600;2022-07-01T07:53:07;17.90;99.90
26954;DHT22;14508;50.924;11.600;2022-07-01T07:55:34;17.80;99.90
26954;DHT22;14508;50.924;11.600;2022-07-01T07:58:01;17.80;99.90
26954;DHT22;14508;50.924;11.600;2022-07-01T08:00:27;17.70;99.90
26954;DHT22;14508;50.924;11.600;2022-07-01T08:02:54;17.50;99.90
26954;DHT22;14508;50.924;11.600;2022-07-01T08:05:21;17.40;99.90
26954;DHT22;14508;50.924;11.600;2022-07-01T08:07:49;17.40;99.90
26954;DHT22;14508;50.924;11.600;2022-07-01T08:10:16;17.40;99.90
26954;DHT22;14508;50.924;11.600;2022-07-01T08:12:42;17.30;99.90
26954;DHT22;14508;50.924;11.600;2022-07-01T08:15:09;17.20;99.90
26954;DHT22;14508;50.924;11.600;2022-07-01T08:17:36;17.20;99.90
26954;DHT22;14508;50.924;11.600;2022-07-01T08:20:03;17.10;99.90
26954;DHT22;14508;50.924;11.600;2022-07-01T08:22:31;17.10;99.90
26954;DHT22;14508;50.924;11.600;2022-07-01T08:25:00;17.10;99.90
26954;DHT22;14508;50.924;11.600;2022-07-01T08:27:28;17.00;99.90
26954;DHT22;14508;50.924;11.600;2022-07-01T08:29:54;16.90;99.90
26954;DHT22;14508;50.924;11.600;2022-07-01T08:32:21;16.90;99.90
26954;DHT22;14508;50.924;11.600;2022-07-01T08:34:51;16.80;99.90
26954;DHT22;14508;50.924;11.600;2022-07-01T08:37:17;16.80;99.90
26954;DHT22;14508;50.924;11.600;2022-07-01T08:39:44;16.80;99.90
26954;DHT22;14508;50.924;11.600;2022-07-01T08:42:12;16.80;99.90
26954;DHT22;14508;50.924;11.600;2022-07-01T08:44:39;16.90;99.90
26954;DHT22;14508;50.924;11.600;2022-07-01T08:47:09;16.90;99.90
26954;DHT22;14508;50.924;11.600;2022-07-01T08:49:37;17.00;99.90
26954;DHT22;14508;50.924;11.600;2022-07-01T08:52:04;17.10;99.90
26954;DHT22;14508;50.924;11.600;2022-07-01T08:54:30;17.20;99.90
26954;DHT22;14508;50.924;11.600;2022-07-01T08:56:57;17.30;99.90
26954;DHT22;14508;50.924;11.600;2022-07-01T08:59:26;17.30;99.90
26954;DHT22;14508;50.924;11.600;2022-07-01T09:01:56;17.30;99.90
26954;DHT22;14508;50.924;11.600;2022-07-01T09:04:23;17.30;99.90
26954;DHT22;14508;50.924;11.600;2022-07-01T09:06:50;17.30;99.90
26954;DHT22;14508;50.924;11.600;2022-07-01T09:09:19;17.40;99.90
26954;DHT22;14508;50.924;11.600;2022-07-01T09:11:47;17.30;99.90
26954;DHT22;14508;50.924;11.600;2022-07-01T09:14:19;17.30;99.90
26954;DHT22;14508;50.924;11.600;2022-07-01T09:16:49;17.20;99.90
26954;DHT22;14508;50.924;11.600;2022-07-01T09:19:18;17.20;99.90
26954;DHT22;14508;50.924;11.600;2022-07-01T09:21:47;17.20;99.90
26954;DHT22;14508;50.924;11.600;2022-07-01T09:24:26;17.40;99.90
26954;DHT22;14508;50.924;11.600;2022-07-01T09:26:55;17.40;99.90
26954;DHT22;14508;50.924;11.600;2022-07-01T09:29:26;17.50;99.90
26954;DHT22;14508;50.924;11.600;2022-07-01T09:31:54;17.60;99.90
26954;DHT22;14508;50.924;11.600;2022-07-01T09:34:21;17.70;99.90
26954;DHT22;14508;50.924;11.600;2022-07-01T09:36:52;17.70;99.90
26954;DHT22;14508;50.924;11.600;2022-07-01T09:39:19;17.70;99.90
26954;DHT22;14508;50.924;11.600;2022-07-01T09:41:46;17.70;99.90
26954;DHT22;14508;50.924;11.600;2022-07-01T09:44:13;17.70;99.90
26954;DHT22;14508;50.924;11.600;2022-07-01T09:46:51;17.70;99.90
26954;DHT22;14508;50.924;11.600;2022-07-01T09:49:19;17.70;99.90
26954;DHT22;14508;50.924;11.600;2022-07-01T09:51:46;17.80;99.90
26954;DHT22;14508;50.924;11.600;2022-07-01T09:54:15;17.80;99.90
26954;DHT22;14508;50.924;11.600;2022-07-01T09:56:41;17.70;99.90
26954;DHT22;14508;50.924;11.600;2022-07-01T09:59:09;17.90;99.90
26954;DHT22;14508;50.924;11.600;2022-07-01T10:01:38;18.00;99.90
26954;DHT22;14508;50.924;11.600;2022-07-01T10:04:07;18.10;99.90
26954;DHT22;14508;50.924;11.600;2022-07-01T10:06:58;18.10;99.90
26954;DHT22;14508;50.924;11.600;2022-07-01T10:09:53;18.20;99.90
26954;DHT22;14508;50.924;11.600;2022-07-01T10:12:36;18.20;99.90
26954;DHT22;14508;50.924;11.600;2022-07-01T10:15:06;18.20;99.90
26954;DHT22;14508;50.924;11.600;2022-07-01T10:17:35;18.10;99.90
26954;DHT22;14508;50.924;11.600;2022-07-01T10:20:08;18.10;99.90
26954;DHT22;14508;50.924;11.600;2022-07-01T10:22:38;18.10;99.90
26954;DHT22;14508;50.924;11.600;2022-07-01T10:25:31;18.00;99.90
26954;DHT22;14508;50.924;11.600;2022-07-01T10:28:22;18.00;99.90
26954;DHT22;14508;50.924;11.600;2022-07-01T10:30:54;18.10;99.90
26954;DHT22;14508;50.924;11.600;2022-07-01T10:36:17;18.10;99.90
26954;DHT22;14508;50.924;11.600;2022-07-01T10:42:02;18.20;99.90
26954;DHT22;14508;50.924;11.600;2022-07-01T10:44:31;18.30;99.90
26954;DHT22;14508;50.924;11.600;2022-07-01T10:47:04;18.40;99.90
26954;DHT22;14508;50.924;11.600;2022-07-01T10:49:50;18.40;99.90
26954;DHT22;14508;50.924;11.600;2022-07-01T10:52:17;18.50;99.90
26954;DHT22;14508;50.924;11.600;2022-07-01T10:54:46;18.50;99.90
26954;DHT22;14508;50.924;11.600;2022-07-01T10:57:26;18.30;99.90
26954;DHT22;14508;50.924;11.600;2022-07-01T10:59:55;18.30;99.90
26954;DHT22;14508;50.924;11.600;2022-07-01T11:02:23;18.40;99.90
26954;DHT22;14508;50.924;11.600;2022-07-01T11:04:52;18.40;99.90
26954;DHT22;14508;50.924;11.600;2022-07-01T11:07:19;18.40;99.90
26954;DHT22;14508;50.924;11.600;2022-07-01T11:09:46;18.40;99.90
26954;DHT22;14508;50.924;11.600;2022-07-01T11:12:15;18.40;99.90
26954;DHT22;14508;50.924;11.600;2022-07-01T11:14:43;18.50;99.90
26954;DHT22;14508;50.924;11.600;2022-07-01T11:17:10;18.60;99.90
26954;DHT22;14508;50.924;11.600;2022-07-01T11:19:37;18.90;99.90
26954;DHT22;14508;50.924;11.600;2022-07-01T11:22:04;19.20;99.90
26954;DHT22;14508;50.924;11.600;2022-07-01T11:24:31;19.40;99.90
26954;DHT22;14508;50.924;11.600;2022-07-01T11:27:00;19.30;99.90
26954;DHT22;14508;50.924;11.600;2022-07-01T11:29:31;19.20;99.90
26954;DHT22;14508;50.924;11.600;2022-07-01T11:32:00;19.00;99.90
26954;DHT22;14508;50.924;11.600;2022-07-01T11:34:27;18.70;99.90
26954;DHT22;14508;50.924;11.600;2022-07-01T11:36:54;18.40;99.90
26954;DHT22;14508;50.924;11.600;2022-07-01T11:39:39;18.20;99.90
26954;DHT22;14508;50.924;11.600;2022-07-01T11:42:08;18.00;99.90
26954;DHT22;14508;50.924;11.600;2022-07-01T11:44:38;17.90;99.90
26954;DHT22;14508;50.924;11.600;2022-07-01T11:47:08;17.80;99.90
26954;DHT22;14508;50.924;11.600;2022-07-01T11:49:44;17.80;99.90
26954;DHT22;14508;50.924;11.600;2022-07-01T11:52:12;17.80;99.90
26954;DHT22;14508;50.924;11.600;2022-07-01T11:54:40;17.90;99.90
26954;DHT22;14508;50.924;11.600;2022-07-01T11:57:08;17.80;99.90
26954;DHT22;14508;50.924;11.600;2022-07-01T11:59:35;17.70;99.90
26954;DHT22;14508;50.924;11.600;2022-07-01T12:02:04;17.70;99.90
26954;DHT22;14508;50.924;11.600;2022-07-01T12:04:32;17.80;99.90
26954;DHT22;14508;50.924;11.600;2022-07-01T12:07:00;17.70;99.90
26954;DHT22;14508;50.924;11.600;2022-07-01T12:09:27;17.70;99.90
26954;DHT22;14508;50.924;11.600;2022-07-01T12:11:54;17.70;99.90
26954;DHT22;14508;50.924;11.600;2022-07-01T12:14:24;17.70;99.90
26954;DHT22;14508;50.924;11.600;2022-07-01T12:16:52;17.90;99.90
26954;DHT22;14508;50.924;11.600;2022-07-01T12:19:19;18.00;99.90
26954;DHT22;14508;50.924;11.600;2022-07-01T12:21:50;18.20;99.90
26954;DHT22;14508;50.924;11.600;2022-07-01T12:24:17;18.40;99.90
26954;DHT22;14508;50.924;11.600;2022-07-01T12:26:49;18.50;99.90
26954;DHT22;14508;50.924;11.600;2022-07-01T12:29:17;18.70;99.90
26954;DHT22;14508;50.924;11.600;2022-07-01T12:31:53;18.70;99.90
26954;DHT22;14508;50.924;11.600;2022-07-01T12:34:20;18.70;99.90
26954;DHT22;14508;50.924;11.600;2022-07-01T12:36:49;18.60;99.90
26954;DHT22;14508;50.924;11.600;2022-07-01T12:39:16;18.50;99.90
26954;DHT22;14508;50.924;11.600;2022-07-01T12:41:53;18.30;99.90
26954;DHT22;14508;50.924;11.600;2022-07-01T12:44:23;18.30;99.90
26954;DHT22;14508;50.924;11.600;2022-07-01T12:46:52;18.10;99.90
26954;DHT22;14508;50.924;11.600;2022-07-01T12:49:20;18.00;99.90
26954;DHT22;14508;50.924;11.600;2022-07-01T12:51:50;17.80;99.90
26954;DHT22;14508;50.924;11.600;2022-07-01T12:54:30;17.70;99.90
26954;DHT22;14508;50.924;11.600;2022-07-01T12:56:57;17.70;99.90
26954;DHT22;14508;50.924;11.600;2022-07-01T12:59:25;17.60;99.90
26954;DHT22;14508;50.924;11.600;2022-07-01T13:01:51;17.50;99.90
26954;DHT22;14508;50.924;11.600;2022-07-01T13:04:23;17.50;99.90
26954;DHT22;14508;50.924;11.600;2022-07-01T13:06:52;17.40;99.90
26954;DHT22;14508;50.924;11.600;2022-07-01T13:09:18;17.40;99.90
26954;DHT22;14508;50.924;11.600;2022-07-01T13:11:45;17.40;99.90
26954;DHT22;14508;50.924;11.600;2022-07-01T13:14:12;17.50;99.90
26954;DHT22;14508;50.924;11.600;2022-07-01T13:16:39;17.50;99.90
26954;DHT22;14508;50.924;11.600;2022-07-01T13:19:05;17.60;99.90
26954;DHT22;14508;50.924;11.600;2022-07-01T13:21:32;17.70;99.90
26954;DHT22;14508;50.924;11.600;2022-07-01T13:24:00;17.80;99.90
26954;DHT22;14508;50.924;11.600;2022-07-01T13:26:27;17.70;99.90
26954;DHT22;14508;50.924;11.600;2022-07-01T13:28:53;17.80;99.90
26954;DHT22;14508;50.924;11.600;2022-07-01T13:31:20;17.90;99.90
26954;DHT22;14508;50.924;11.600;2022-07-01T13:33:46;17.90;99.90
26954;DHT22;14508;50.924;11.600;2022-07-01T13:36:13;17.90;99.90
26954;DHT22;14508;50.924;11.600;2022-07-01T13:38:40;17.80;99.90
26954;DHT22;14508;50.924;11.600;2022-07-01T13:41:10;17.80;99.90
26954;DHT22;14508;50.924;11.600;2022-07-01T13:43:37;17.80;99.90
26954;DHT22;14508;50.924;11.600;2022-07-01T13:46:03;17.70;99.90
26954;DHT22;14508;50.924;11.600;2022-07-01T13:48:30;17.70;99.90
26954;DHT22;14508;50.924;11.600;2022-07-01T13:50:57;17.70;99.90
26954;DHT22;14508;50.924;11.600;2022-07-01T13:53:24;17.70;99.90
26954;DHT22;14508;50.924;11.600;2022-07-01T13:55:50;17.70;99.90
26954;DHT22;14508;50.924;11.600;2022-07-01T13:58:18;17.70;99.90
26954;DHT22;14508;50.924;11.600;2022-07-01T14:00:45;17.70;99.90
26954;DHT22;14508;50.924;11.600;2022-07-01T14:03:12;17.70;99.90
26954;DHT22;14508;50.924;11.600;2022-07-01T14:05:38;17.70;99.90
26954;DHT22;14508;50.924;11.600;2022-07-01T14:08:05;17.70;99.90
26954;DHT22;14508;50.924;11.600;2022-07-01T14:10:32;17.70;99.90
26954;DHT22;14508;50.924;11.600;2022-07-01T14:13:00;17.60;99.90
26954;DHT22;14508;50.924;11.600;2022-07-01T14:15:28;17.60;99.90
26954;DHT22;14508;50.924;11.600;2022-07-01T14:17:55;17.50;99.90
26954;DHT22;14508;50.924;11.600;2022-07-01T14:20:21;17.50;99.90
26954;DHT22;14508;50.924;11.600;2022-07-01T14:22:48;17.50;99.90
26954;DHT22;14508;50.924;11.600;2022-07-01T14:25:15;17.50;99.90
26954;DHT22;14508;50.924;11.600;2022-07-01T14:27:41;17.50;99.90
26954;DHT22;14508;50.924;11.600;2022-07-01T14:30:11;17.50;99.90
26954;DHT22;14508;50.924;11.600;2022-07-01T14:32:46;17.60;99.90
26954;DHT22;14508;50.924;11.600;2022-07-01T14:35:28;17.60;99.90
26954;DHT22;14508;50.924;11.600;2022-07-01T14:38:42;17.60;99.90
26954;DHT22;14508;50.924;11.600;2022-07-01T14:41:14;17.70;99.90
26954;DHT22;14508;50.924;11.600;2022-07-01T14:43:43;17.70;99.90
26954;DHT22;14508;50.924;11.600;2022-07-01T14:46:19;17.70;99.90
26954;DHT22;14508;50.924;11.600;2022-07-01T14:48:53;17.70;99.90
26954;DHT22;14508;50.924;11.600;2022-07-01T14:51:23;17.80;99.90
26954;DHT22;14508;50.924;11.600;2022-07-01T14:54:00;17.80;99.90
26954;DHT22;14508;50.924;11.600;2022-07-01T14:56:57;17.80;99.90
26954;DHT22;14508;50.924;11.600;2022-07-01T15:00:11;17.70;99.90
26954;DHT22;14508;50.924;11.600;2022-07-01T15:02:54;17.70;99.90
26954;DHT22;14508;50.924;11.600;2022-07-01T15:05:27;17.70;99.90
26954;DHT22;14508;50.924;11.600;2022-07-01T15:07:56;17.70;99.90
26954;DHT22;14508;50.924;11.600;2022-07-01T15:10:51;17.70;99.90
26954;DHT22;14508;50.924;11.600;2022-07-01T15:16:33;17.90;99.90
26954;DHT22;14508;50.924;11.600;2022-07-01T15:19:03;18.00;99.90
26954;DHT22;14508;50.924;11.600;2022-07-01T15:21:31;17.90;99.90
26954;DHT22;14508;50.924;11.600;2022-07-01T15:23:58;18.00;99.90
26954;DHT22;14508;50.924;11.600;2022-07-01T15:26:25;18.00;99.90
26954;DHT22;14508;50.924;11.600;2022-07-01T15:28:52;18.00;99.90
26954;DHT22;14508;50.924;11.600;2022-07-01T15:31:28;18.00;99.90
26954;DHT22;14508;50.924;11.600;2022-07-01T15:34:20;18.20;99.90
26954;DHT22;14508;50.924;11.600;2022-07-01T15:36:48;18.20;99.90
26954;DHT22;14508;50.924;11.600;2022-07-01T15:39:15;18.40;99.90